Time;durP1;ratioP1;P1;durP2;ratioP2;P2;SDS_P1;SDS_P2;PMS_P1;PMS_P2;Temp;Humidity;BMP_temperature;BMP_pressure;BME280_temperature;BME280_humidity;BME280_pressure;Samples;Min_cycle;Max_cycle;Signal;HPM_P1;HPM_P2
2022/02/04 00:09:04;;;;;;;17.35;6.68;;;9.60;99.90;;;;;;5030816;28;20040;-66
2022/02/04 00:32:06;;;;;;;14.20;6.78;;;9.60;99.90;;;;;;5032842;28;20041;-66
2022/02/04 00:36:02;;;;;;;19.55;8.77;;;9.70;99.90;;;;;;5032019;28;20404;-66
2022/02/04 00:38:38;;;;;;;15.95;8.00;;;9.80;99.90;;;;;;5033777;28;20052;-67
2022/02/04 00:41:44;;;;;;;11.50;7.32;;;9.80;99.90;;;;;;5032172;28;20055;-66
2022/02/04 00:44:50;;;;;;;13.25;6.30;;;9.80;99.90;;;;;;5032757;28;20392;-66
2022/02/04 00:48:06;;;;;;;17.58;7.07;;;9.80;99.90;;;;;;5031582;28;20409;-66
2022/02/04 00:54:27;;;;;;;18.65;7.30;;;9.70;99.90;;;;;;5032389;28;20109;-66
2022/02/04 01:27:13;;;;;;;17.25;7.00;;;9.10;99.90;;;;;;5031004;28;20037;-66
2022/02/04 01:30:25;;;;;;;20.77;6.32;;;9.10;99.90;;;;;;5030405;28;20069;-66
2022/02/04 01:33:30;;;;;;;14.32;6.38;;;9.10;99.90;;;;;;5030938;28;20052;-66
2022/02/04 01:36:34;;;;;;;16.45;6.05;;;9.10;99.90;;;;;;5030864;28;20048;-66
2022/02/04 01:39:38;;;;;;;21.77;7.15;;;9.10;99.90;;;;;;5031061;28;20057;-66
2022/02/04 01:42:43;;;;;;;20.45;6.50;;;9.20;99.90;;;;;;5030884;28;20049;-66
2022/02/04 01:45:57;;;;;;;15.18;5.90;;;9.10;99.90;;;;;;5030669;28;20049;-66
2022/02/04 01:49:03;;;;;;;10.55;5.95;;;9.00;99.90;;;;;;5030708;28;20049;-66
2022/02/04 01:52:08;;;;;;;20.02;6.70;;;9.10;99.90;;;;;;5029730;28;20040;-66
2022/02/04 01:55:14;;;;;;;11.55;5.95;;;9.00;99.90;;;;;;5030975;28;20045;-66
2022/02/04 01:58:18;;;;;;;19.92;6.13;;;9.00;99.90;;;;;;5029904;28;20056;-66
2022/02/04 02:01:22;;;;;;;22.30;6.93;;;8.90;99.90;;;;;;5030360;28;20060;-66
2022/02/04 02:04:26;;;;;;;19.85;6.90;;;9.00;99.90;;;;;;5030572;28;20040;-67
2022/02/04 02:07:39;;;;;;;15.63;6.38;;;9.10;99.90;;;;;;5030852;28;20045;-67
2022/02/04 02:10:45;;;;;;;16.83;6.40;;;9.10;99.90;;;;;;5030476;28;20048;-66
2022/02/04 02:13:52;;;;;;;14.35;7.78;;;9.10;99.90;;;;;;5031358;28;20044;-66
2022/02/04 02:44:13;;;;;;;12.45;5.95;;;8.70;99.90;;;;;;5032619;28;20045;-66
2022/02/04 02:47:39;;;;;;;12.52;6.28;;;8.80;99.90;;;;;;5034475;28;20049;-67
2022/02/04 03:00:48;;;;;;;16.33;5.30;;;8.90;99.90;;;;;;5033974;28;20041;-66
2022/02/04 03:03:55;;;;;;;14.00;5.47;;;8.80;99.90;;;;;;5034165;28;20468;-66
2022/02/04 03:07:00;;;;;;;19.92;7.32;;;8.70;99.90;;;;;;5033779;28;20041;-66
2022/02/04 03:10:04;;;;;;;19.90;6.38;;;8.60;99.90;;;;;;5033305;28;20045;-65
2022/02/04 03:13:08;;;;;;;10.93;5.05;;;8.80;99.90;;;;;;5044297;28;20040;-66
2022/02/04 03:16:17;;;;;;;18.30;5.22;;;8.80;99.90;;;;;;5033586;28;20049;-66
2022/02/04 03:19:22;;;;;;;10.85;4.75;;;8.80;99.90;;;;;;5033101;28;20055;-66
2022/02/04 03:22:26;;;;;;;14.93;5.25;;;8.70;99.90;;;;;;5033560;28;20400;-66
2022/02/04 03:25:37;;;;;;;16.23;4.82;;;8.70;99.90;;;;;;5033242;28;20531;-66
2022/02/04 03:28:41;;;;;;;12.45;4.53;;;8.60;99.90;;;;;;5031541;28;20504;-66
2022/02/04 03:31:50;;;;;;;16.58;6.57;;;8.70;99.90;;;;;;5033266;28;20053;-66
2022/02/04 03:34:55;;;;;;;11.65;5.03;;;8.70;99.90;;;;;;5033360;28;20045;-66
2022/02/04 03:37:59;;;;;;;17.17;5.22;;;8.60;99.90;;;;;;5032796;28;20044;-66
2022/02/04 03:41:03;;;;;;;9.88;4.72;;;8.60;99.90;;;;;;5033139;28;20412;-66
2022/02/04 03:44:07;;;;;;;11.52;4.68;;;8.70;99.90;;;;;;5032834;28;20033;-66
2022/02/04 03:47:11;;;;;;;14.27;5.07;;;8.70;99.90;;;;;;5032436;28;20057;-66
2022/02/04 03:50:15;;;;;;;16.70;5.20;;;8.70;99.90;;;;;;5032848;28;20044;-66
2022/02/04 03:53:19;;;;;;;9.80;4.82;;;8.70;99.90;;;;;;5032873;28;20388;-66
2022/02/04 03:56:23;;;;;;;12.02;4.32;;;8.60;99.90;;;;;;5032834;28;20365;-65
2022/02/04 03:59:28;;;;;;;17.60;4.53;;;8.60;99.90;;;;;;5032806;28;20048;-65
2022/02/04 04:02:33;;;;;;;12.63;4.53;;;8.70;99.90;;;;;;5033108;28;20052;-65
2022/02/04 04:05:42;;;;;;;12.00;4.35;;;8.70;99.90;;;;;;5032303;28;20041;-65
2022/02/04 04:08:51;;;;;;;15.30;4.80;;;8.80;99.90;;;;;;5031943;28;20036;-65
2022/02/04 04:11:56;;;;;;;15.52;5.05;;;8.90;99.90;;;;;;5032267;28;20054;-66
2022/02/04 04:15:05;;;;;;;12.43;4.65;;;9.00;99.90;;;;;;5032598;28;20044;-66
2022/02/04 04:18:12;;;;;;;15.40;4.45;;;8.90;99.90;;;;;;5031480;28;20040;-65
2022/02/04 04:21:16;;;;;;;9.40;4.28;;;8.90;99.90;;;;;;5032404;28;20052;-65
2022/02/04 04:24:20;;;;;;;11.20;3.95;;;9.00;99.90;;;;;;5032772;28;20038;-66
2022/02/04 04:27:24;;;;;;;14.52;4.63;;;9.00;99.90;;;;;;5031874;28;20112;-66
2022/02/04 04:30:28;;;;;;;13.73;3.72;;;9.10;99.90;;;;;;5032359;28;20060;-66
2022/02/04 04:33:32;;;;;;;13.13;4.20;;;9.10;99.90;;;;;;5032234;28;20048;-66
2022/02/04 04:36:36;;;;;;;19.05;4.82;;;8.90;99.90;;;;;;5032259;28;20048;-66
2022/02/04 04:40:22;;;;;;;11.13;4.60;;;8.70;99.90;;;;;;5031666;28;20040;-66
2022/02/04 04:43:38;;;;;;;10.73;4.03;;;8.70;99.90;;;;;;5031909;28;20044;-65
2022/02/04 05:30:16;;;;;;;12.93;5.85;;;8.40;99.90;;;;;;5030661;28;20052;-66
2022/02/04 05:33:20;;;;;;;14.18;5.40;;;8.50;99.90;;;;;;5030905;28;20044;-66
2022/02/04 05:36:24;;;;;;;11.02;5.63;;;8.50;99.90;;;;;;5031076;28;20099;-66
2022/02/04 05:39:35;;;;;;;19.10;5.95;;;8.60;99.90;;;;;;5030424;28;20048;-67
2022/02/04 05:42:46;;;;;;;12.90;4.40;;;8.60;99.90;;;;;;5030972;28;20048;-66
2022/02/04 05:46:00;;;;;;;15.82;5.72;;;8.70;99.90;;;;;;5030771;28;20044;-66
2022/02/04 05:49:06;;;;;;;14.40;5.05;;;8.80;99.90;;;;;;5030019;28;20048;-65
2022/02/04 05:52:21;;;;;;;11.25;3.90;;;8.70;99.90;;;;;;5030974;28;20036;-65
2022/02/04 05:59:04;;;;;;;15.02;4.75;;;8.70;99.90;;;;;;5030050;28;20040;-65
2022/02/04 06:02:20;;;;;;;11.98;4.43;;;8.60;99.90;;;;;;5029547;28;20531;-66
2022/02/04 06:06:05;;;;;;;16.52;5.05;;;8.60;99.90;;;;;;5029978;28;20061;-65
2022/02/04 06:22:21;;;;;;;10.05;4.70;;;8.60;99.90;;;;;;5030577;28;20064;-66
2022/02/04 06:25:26;;;;;;;21.65;5.43;;;8.60;99.90;;;;;;5030577;28;20155;-66
2022/02/04 06:28:31;;;;;;;13.20;4.72;;;8.60;99.90;;;;;;5017265;28;20064;-65
2022/02/04 06:31:35;;;;;;;14.65;5.10;;;8.60;99.90;;;;;;5030769;28;20056;-66
2022/02/04 06:34:39;;;;;;;19.23;4.70;;;8.70;99.90;;;;;;5030096;28;20048;-66
2022/02/04 06:37:43;;;;;;;11.40;4.93;;;8.70;99.90;;;;;;5030491;28;20048;-66
2022/02/04 06:40:47;;;;;;;13.48;5.22;;;8.70;99.90;;;;;;5030261;28;20049;-66
2022/02/04 06:43:51;;;;;;;16.27;5.07;;;8.70;99.90;;;;;;5030054;28;20045;-66
2022/02/04 06:46:55;;;;;;;12.02;4.45;;;8.70;99.90;;;;;;5029558;28;20392;-66
2022/02/04 06:49:59;;;;;;;12.73;4.60;;;8.80;99.90;;;;;;5029236;28;20044;-66
2022/02/04 06:53:04;;;;;;;12.25;4.60;;;8.80;99.90;;;;;;5029679;28;20041;-67
2022/02/04 06:56:09;;;;;;;18.60;5.57;;;8.80;99.90;;;;;;5028757;28;20049;-66
2022/02/04 06:59:13;;;;;;;20.02;5.05;;;8.90;99.90;;;;;;5028492;28;20041;-66
2022/02/04 07:02:20;;;;;;;13.40;5.07;;;9.00;99.90;;;;;;5025770;28;20049;-66
2022/02/04 07:05:25;;;;;;;16.85;4.35;;;9.00;99.90;;;;;;5029348;28;20056;-66
2022/02/04 07:08:44;;;;;;;12.07;4.00;;;9.10;99.90;;;;;;5028818;28;20396;-67
2022/02/04 07:21:39;;;;;;;16.52;5.13;;;9.00;99.90;;;;;;5025774;28;20053;-65
2022/02/04 07:24:50;;;;;;;15.18;6.50;;;9.00;99.90;;;;;;5026339;28;20033;-66
2022/02/04 07:27:55;;;;;;;14.38;4.93;;;9.00;99.90;;;;;;5025714;28;20064;-65
2022/02/04 07:31:02;;;;;;;14.02;4.55;;;9.10;99.90;;;;;;5032763;28;20045;-65
2022/02/04 07:43:41;;;;;;;20.98;6.47;;;9.00;99.90;;;;;;5028416;28;20052;-64
2022/02/04 07:46:45;;;;;;;26.95;5.95;;;9.00;99.90;;;;;;5020658;28;20041;-64
2022/02/04 07:49:52;;;;;;;20.67;8.50;;;8.90;99.90;;;;;;5027996;28;20056;-65
2022/02/04 07:52:56;;;;;;;26.52;6.65;;;9.00;99.90;;;;;;5042951;28;20393;-65
2022/02/04 07:56:02;;;;;;;21.13;5.68;;;9.00;99.90;;;;;;5032047;28;20048;-66
2022/02/04 07:59:08;;;;;;;17.48;6.40;;;9.10;99.90;;;;;;5025394;28;20045;-65
2022/02/04 08:02:12;;;;;;;26.30;6.03;;;9.20;99.90;;;;;;5027767;28;20049;-65
2022/02/04 08:05:20;;;;;;;14.02;5.32;;;9.20;99.90;;;;;;5030876;28;20495;-65
2022/02/04 08:24:32;;;;;;;18.77;6.20;;;9.50;99.90;;;;;;5020557;28;20041;-65
2022/02/04 08:34:41;;;;;;;17.67;6.35;;;9.60;99.90;;;;;;5024377;28;20053;-65
2022/02/04 08:37:51;;;;;;;15.18;5.93;;;9.50;99.90;;;;;;5031140;28;20053;-65
2022/02/04 08:46:46;;;;;;;24.17;6.90;;;9.60;99.90;;;;;;5025140;28;20036;-65
2022/02/04 09:03:29;;;;;;;14.57;6.10;;;10.00;99.90;;;;;;5030007;28;20036;-65
2022/02/04 09:06:39;;;;;;;17.63;6.80;;;10.10;99.90;;;;;;5031434;28;20374;-64
2022/02/04 09:09:56;;;;;;;17.08;6.80;;;10.20;99.90;;;;;;5033129;28;20037;-64
2022/02/04 09:19:40;;;;;;;26.25;10.48;;;10.50;99.90;;;;;;5029889;28;20047;-65
2022/02/04 09:22:47;;;;;;;21.08;9.05;;;10.50;99.90;;;;;;5030514;28;20040;-65
2022/02/04 09:25:52;;;;;;;23.23;8.38;;;10.60;99.90;;;;;;5018929;28;20045;-64
2022/02/04 09:28:57;;;;;;;17.98;6.95;;;10.40;99.90;;;;;;5025257;28;20040;-65
2022/02/04 09:32:01;;;;;;;38.88;8.68;;;10.20;99.90;;;;;;5029413;28;20041;-65
2022/02/04 09:35:14;;;;;;;18.17;6.97;;;10.40;99.90;;;;;;5027176;28;20033;-64
2022/02/04 09:38:19;;;;;;;17.98;6.72;;;10.50;99.90;;;;;;5028689;28;20044;-65
2022/02/04 09:41:23;;;;;;;20.65;6.45;;;10.70;99.90;;;;;;5027727;28;20049;-65
2022/02/04 09:44:27;;;;;;;20.70;6.07;;;10.70;99.90;;;;;;5030753;28;20839;-64
2022/02/04 09:47:35;;;;;;;23.45;7.15;;;10.70;99.90;;;;;;5024563;28;20049;-65
2022/02/04 09:50:44;;;;;;;18.98;5.90;;;10.70;99.90;;;;;;5026664;28;20060;-65
2022/02/04 10:14:35;;;;;;;19.50;6.70;;;12.20;99.90;;;;;;5027442;28;20594;-65
2022/02/04 10:17:57;;;;;;;19.93;6.60;;;11.80;99.90;;;;;;5029461;28;20045;-65
2022/02/04 10:21:07;;;;;;;16.85;6.40;;;12.10;99.90;;;;;;5025580;28;20283;-65
2022/02/04 10:24:10;;;;;;;19.88;7.38;;;11.80;99.90;;;;;;5029298;28;20048;-66
2022/02/04 10:27:20;;;;;;;18.38;6.93;;;12.00;99.90;;;;;;5027430;28;20043;-65
2022/02/04 10:30:31;;;;;;;19.83;5.40;;;11.80;99.90;;;;;;5030244;28;20503;-65
2022/02/04 10:34:14;;;;;;;22.50;6.43;;;11.90;99.90;;;;;;5029670;28;20041;-65
2022/02/04 10:37:27;;;;;;;;;;;11.70;99.90;;;;;;5020458;28;20041;-65
2022/02/04 10:40:44;;;;;;;23.48;6.00;;;11.70;99.90;;;;;;5023769;28;19917;-65
2022/02/04 10:44:19;;;;;;;25.83;6.72;;;11.80;99.90;;;;;;5028620;28;20064;-65
2022/02/04 10:47:49;;;;;;;16.77;5.07;;;12.00;99.90;;;;;;5028481;28;20040;-65
2022/02/04 11:35:38;;;;;;;24.83;5.80;;;11.60;99.90;;;;;;5031716;28;20499;-65
2022/02/04 11:53:56;;;;;;;24.23;5.10;;;11.40;99.90;;;;;;5031518;28;20045;-66
2022/02/04 11:57:03;;;;;;;16.60;6.78;;;11.80;99.90;;;;;;5029691;28;20310;-65
2022/02/04 12:00:18;;;;;;;19.05;5.85;;;11.90;99.90;;;;;;5030245;28;20271;-65
2022/02/04 12:03:35;;;;;;;20.70;5.25;;;12.40;99.90;;;;;;5028425;28;20049;-65
2022/02/04 12:06:41;;;;;;;20.05;5.13;;;12.60;99.90;;;;;;5031494;28;20048;-66
2022/02/04 12:09:46;;;;;;;17.33;4.90;;;12.70;99.90;;;;;;5032090;28;20490;-65
2022/02/04 12:16:06;;;;;;;17.33;6.57;;;13.10;99.90;;;;;;5030900;28;20041;-65
2022/02/04 12:19:12;;;;;;;17.20;5.15;;;12.20;99.90;;;;;;5032285;28;20052;-66
2022/02/04 12:23:03;;;;;;;13.60;4.93;;;12.40;99.90;;;;;;5030185;28;20041;-64
2022/02/04 12:26:21;;;;;;;20.95;4.72;;;12.70;99.90;;;;;;5032410;28;20384;-65
2022/02/04 12:29:28;;;;;;;11.77;4.93;;;12.80;99.90;;;;;;5032040;28;20044;-64
2022/02/04 12:32:38;;;;;;;17.52;4.43;;;12.60;99.90;;;;;;5031362;28;20036;-65
2022/02/04 12:35:42;;;;;;;15.40;4.60;;;13.10;99.90;;;;;;5031034;28;20400;-65
2022/02/04 12:38:47;;;;;;;18.13;5.75;;;14.10;99.90;;;;;;5030491;28;20128;-65
2022/02/04 12:41:55;;;;;;;13.98;4.90;;;14.30;99.90;;;;;;5028041;28;20056;-66
2022/02/04 12:45:05;;;;;;;16.10;5.38;;;14.70;99.90;;;;;;5032889;28;20041;-65
2022/02/04 12:48:09;;;;;;;15.52;4.60;;;15.20;99.90;;;;;;5030898;28;20396;-65
2022/02/04 12:51:20;;;;;;;16.05;4.97;;;15.30;99.90;;;;;;5030891;28;20037;-65
2022/02/04 12:54:45;;;;;;;16.35;5.38;;;14.90;99.90;;;;;;5026509;28;20044;-65
2022/02/04 13:08:18;;;;;;;20.90;4.80;;;17.20;99.90;;;;;;5029311;28;20052;-66
2022/02/04 13:11:23;;;;;;;16.98;5.22;;;15.50;99.90;;;;;;5025425;28;20044;-65
2022/02/04 13:14:28;;;;;;;14.13;5.32;;;14.40;99.90;;;;;;5025722;28;20052;-65
2022/02/04 13:17:36;;;;;;;17.23;4.60;;;14.10;99.90;;;;;;5030183;28;20048;-65
2022/02/04 13:20:46;;;;;;;18.92;5.80;;;13.80;99.90;;;;;;5031612;28;20048;-65
2022/02/04 13:23:52;;;;;;;19.13;5.22;;;13.10;99.90;;;;;;5027218;28;20499;-65
2022/02/04 13:27:10;;;;;;;14.90;5.65;;;13.10;99.90;;;;;;5030376;28;20044;-65
2022/02/04 13:30:25;;;;;;;19.92;5.63;;;13.00;99.90;;;;;;5026513;28;20049;-65
2022/02/04 13:33:51;;;;;;;21.95;5.63;;;13.00;99.90;;;;;;5026921;28;20044;-65
2022/02/04 13:37:02;;;;;;;20.05;5.00;;;13.10;99.90;;;;;;5026718;28;20681;-65
2022/02/04 13:40:17;;;;;;;18.27;5.03;;;13.00;99.90;;;;;;5023334;28;20048;-65
2022/02/04 13:43:36;;;;;;;16.92;5.57;;;12.80;99.90;;;;;;5023032;28;20040;-65
2022/02/04 13:46:47;;;;;;;25.30;10.32;;;12.90;99.90;;;;;;5022288;28;20045;-65
2022/02/04 13:53:06;;;;;;;26.88;7.30;;;12.80;99.90;;;;;;5029791;28;20056;-65
2022/02/04 13:56:33;;;;;;;21.85;6.20;;;13.00;99.90;;;;;;5027930;28;20048;-66
2022/02/04 13:59:59;;;;;;;22.17;6.10;;;13.20;99.90;;;;;;5023102;28;20044;-65
2022/02/04 14:03:15;;;;;;;19.42;6.22;;;13.30;99.90;;;;;;5025467;28;20032;-65
2022/02/04 14:06:27;;;;;;;20.20;6.07;;;13.30;99.90;;;;;;5029045;28;20044;-65
2022/02/04 14:09:37;;;;;;;27.48;6.50;;;13.00;99.90;;;;;;5024895;28;20060;-65
2022/02/04 14:12:41;;;;;;;23.58;7.30;;;13.10;99.90;;;;;;5027464;28;20037;-65
2022/02/04 14:15:50;;;;;;;18.23;6.43;;;13.00;99.90;;;;;;5026619;28;20049;-65
2022/02/04 14:18:54;;;;;;;23.60;6.53;;;13.20;99.90;;;;;;5023980;28;20040;-65
2022/02/04 14:21:58;;;;;;;23.10;6.25;;;13.30;99.90;;;;;;5027912;28;20048;-65
2022/02/04 14:25:05;;;;;;;17.88;5.80;;;13.90;99.90;;;;;;5031970;28;20056;-65
2022/02/04 14:28:11;;;;;;;27.95;6.05;;;13.70;99.90;;;;;;5027503;28;20065;-65
2022/02/04 14:54:48;;;;;;;24.52;5.50;;;13.40;99.90;;;;;;5034243;28;19936;-65
2022/02/04 15:04:49;;;;;;;22.77;10.50;;;13.30;99.90;;;;;;5027598;28;20064;-66
2022/02/04 15:07:52;;;;;;;14.35;5.38;;;13.20;99.90;;;;;;5030063;28;20037;-65
2022/02/04 15:10:59;;;;;;;25.10;6.38;;;13.40;99.90;;;;;;5033013;28;20036;-65
2022/02/04 15:14:08;;;;;;;19.30;5.57;;;13.00;99.90;;;;;;5014218;28;20048;-65
2022/02/04 15:17:12;;;;;;;23.08;5.90;;;13.00;99.90;;;;;;5023174;28;20039;-66
2022/02/04 15:20:16;;;;;;;22.73;6.72;;;12.90;99.90;;;;;;5033071;28;20037;-65
2022/02/04 15:23:22;;;;;;;31.13;7.90;;;12.80;99.90;;;;;;5032945;28;20037;-65
2022/02/04 15:26:29;;;;;;;20.00;6.90;;;12.80;99.90;;;;;;5021371;28;20052;-65
2022/02/04 15:29:38;;;;;;;29.73;7.03;;;12.50;99.90;;;;;;5033122;28;20072;-65
2022/02/04 15:32:41;;;;;;;24.02;8.57;;;12.40;99.90;;;;;;5032760;28;20530;-66
2022/02/04 15:35:45;;;;;;;20.75;7.95;;;12.10;99.90;;;;;;5034255;28;20495;-65
2022/02/04 15:38:50;;;;;;;21.13;7.10;;;12.10;99.90;;;;;;5014556;28;20052;-68
2022/02/04 15:41:57;;;;;;;20.73;7.07;;;12.10;99.90;;;;;;5025937;28;20049;-68
2022/02/04 15:45:58;;;;;;;19.73;6.72;;;12.10;99.90;;;;;;5034611;28;20444;-68
2022/02/04 15:55:45;;;;;;;290.25;115.15;;;11.90;99.90;;;;;;5033449;28;20491;-68
2022/02/04 16:02:46;;;;;;;90.57;34.05;;;11.90;99.90;;;;;;5027805;28;20044;-68
2022/02/04 16:05:50;;;;;;;33.65;11.10;;;11.80;99.90;;;;;;5030920;28;20052;-68
2022/02/04 16:08:56;;;;;;;20.15;8.77;;;11.70;99.90;;;;;;5029191;28;20049;-68
2022/02/04 16:12:07;;;;;;;30.95;9.93;;;11.60;99.90;;;;;;5031643;28;20044;-68
2022/02/04 16:15:21;;;;;;;35.60;12.52;;;11.60;99.90;;;;;;5029831;28;20040;-68
2022/02/04 16:18:31;;;;;;;45.20;15.77;;;11.50;99.90;;;;;;5032219;28;20029;-68
2022/02/04 16:21:48;;;;;;;28.35;10.05;;;11.50;99.90;;;;;;5022385;28;20044;-68
2022/02/04 16:31:29;;;;;;;37.90;12.98;;;11.50;99.90;;;;;;5033391;28;20116;-69
2022/02/04 16:34:33;;;;;;;35.83;9.80;;;11.30;99.90;;;;;;5034544;28;20048;-69
2022/02/04 16:37:38;;;;;;;20.48;9.73;;;11.20;99.90;;;;;;5032591;28;20068;-68
2022/02/04 16:40:45;;;;;;;37.75;11.57;;;11.30;99.90;;;;;;5032842;28;20049;-68
2022/02/04 16:43:49;;;;;;;22.73;11.15;;;11.20;99.90;;;;;;5033882;28;20056;-68
2022/02/04 16:46:53;;;;;;;26.20;11.93;;;11.20;99.90;;;;;;5032743;28;20072;-69
2022/02/04 16:50:01;;;;;;;29.15;11.00;;;11.10;99.90;;;;;;5031880;28;20076;-69
2022/02/04 16:53:05;;;;;;;29.58;12.45;;;11.10;99.90;;;;;;5033518;28;20044;-68
2022/02/04 16:56:10;;;;;;;34.00;12.23;;;11.10;99.90;;;;;;5033530;28;20056;-68
2022/02/04 16:59:14;;;;;;;32.58;14.45;;;11.20;99.90;;;;;;5031686;28;20400;-69
2022/02/04 17:02:28;;;;;;;31.98;15.40;;;11.20;99.90;;;;;;5031178;28;20056;-68
2022/02/04 17:05:48;;;;;;;29.92;16.75;;;11.30;99.90;;;;;;5031622;28;20056;-68
2022/02/04 17:08:59;;;;;;;29.90;14.43;;;11.20;99.90;;;;;;5031143;28;20044;-68
2022/02/04 17:12:06;;;;;;;29.00;15.32;;;11.20;99.90;;;;;;5030307;28;20099;-68
2022/02/04 17:15:10;;;;;;;27.10;12.98;;;11.20;99.90;;;;;;5033183;28;20096;-68
2022/02/04 17:18:15;;;;;;;24.80;12.57;;;11.20;99.90;;;;;;5032788;28;20053;-69
2022/02/04 17:21:24;;;;;;;32.30;12.77;;;11.20;99.90;;;;;;5032322;28;20048;-69
2022/02/04 17:24:28;;;;;;;28.17;13.15;;;11.20;99.90;;;;;;5031592;28;20049;-68
2022/02/04 17:27:35;;;;;;;33.25;15.25;;;11.30;99.90;;;;;;5033758;28;20048;-69
2022/02/04 17:30:43;;;;;;;26.70;13.18;;;11.30;99.90;;;;;;5031546;28;20056;-68
2022/02/04 17:33:48;;;;;;;32.75;13.90;;;11.30;99.90;;;;;;5031219;28;20395;-69
2022/02/04 17:36:52;;;;;;;30.60;14.48;;;11.30;99.90;;;;;;5033273;28;20048;-68
2022/02/04 17:39:57;;;;;;;25.15;14.00;;;11.30;99.90;;;;;;5030171;28;20055;-68
2022/02/04 17:43:02;;;;;;;34.83;16.10;;;11.30;99.90;;;;;;5031209;28;20052;-68
2022/02/04 17:46:07;;;;;;;36.80;15.98;;;11.30;99.90;;;;;;5030692;28;20064;-68
2022/02/04 17:49:34;;;;;;;36.25;18.27;;;11.30;99.90;;;;;;5030065;28;20501;-68
2022/02/04 17:55:54;;;;;;;36.40;20.10;;;11.20;99.90;;;;;;5030956;28;20048;-68
2022/02/04 18:02:26;;;;;;;55.80;28.50;;;11.20;99.90;;;;;;5034060;28;20044;-68
2022/02/04 18:05:42;;;;;;;52.53;28.73;;;11.10;99.90;;;;;;5034361;28;20040;-68
2022/02/04 18:08:46;;;;;;;68.03;37.25;;;11.10;99.90;;;;;;5032942;28;20168;-68
2022/02/04 18:11:50;;;;;;;75.00;39.33;;;11.00;99.90;;;;;;5031394;28;20388;-68
2022/02/04 18:14:55;;;;;;;79.97;41.25;;;11.00;99.90;;;;;;5034611;28;20049;-68
2022/02/04 18:18:00;;;;;;;72.47;35.67;;;11.00;99.90;;;;;;5034714;28;20053;-68
2022/02/04 18:21:05;;;;;;;85.68;46.00;;;11.00;99.90;;;;;;5034304;28;20048;-68
2022/02/04 18:24:11;;;;;;;136.88;75.25;;;11.00;99.90;;;;;;5031478;28;20488;-68
2022/02/04 18:27:15;;;;;;;101.97;54.08;;;11.00;99.90;;;;;;5034929;28;20400;-68
2022/02/04 18:30:20;;;;;;;109.82;57.53;;;10.90;99.90;;;;;;5035117;28;20040;-68
2022/02/04 18:33:25;;;;;;;111.90;61.85;;;10.90;99.90;;;;;;5034435;28;20044;-68
2022/02/04 18:36:31;;;;;;;93.43;53.25;;;11.00;99.90;;;;;;5034654;28;20040;-67
2022/02/04 18:49:26;;;;;;;83.05;47.08;;;11.00;99.90;;;;;;5031850;28;20048;-65
2022/02/04 18:59:00;;;;;;;51.13;27.05;;;11.00;99.90;;;;;;5033199;28;20064;-65
2022/02/04 19:02:05;;;;;;;54.92;28.77;;;10.90;99.90;;;;;;5030892;28;20424;-65
2022/02/04 19:05:18;;;;;;;74.20;38.38;;;11.00;99.90;;;;;;5031396;28;20064;-65
2022/02/04 19:08:29;;;;;;;55.15;29.00;;;11.00;99.90;;;;;;5030898;28;20392;-65
2022/02/04 19:11:42;;;;;;;36.67;17.90;;;11.00;99.90;;;;;;5031507;28;20339;-65
2022/02/04 19:15:07;;;;;;;32.65;15.35;;;11.10;99.90;;;;;;5030976;28;20052;-67
2022/02/04 19:18:19;;;;;;;35.53;12.73;;;11.00;99.90;;;;;;5029578;28;20502;-65
2022/02/04 19:21:43;;;;;;;36.58;18.75;;;11.00;99.90;;;;;;5031618;28;20040;-67
2022/02/04 19:24:49;;;;;;;45.13;21.20;;;11.10;99.90;;;;;;5033365;28;20049;-67
2022/02/04 19:27:54;;;;;;;29.73;13.93;;;11.00;99.90;;;;;;5037547;28;20064;-67
2022/02/04 19:30:59;;;;;;;40.13;19.15;;;11.00;99.90;;;;;;5036532;28;20049;-67
2022/02/04 19:34:06;;;;;;;45.20;22.40;;;10.90;99.90;;;;;;5037165;28;20511;-67
2022/02/04 19:37:10;;;;;;;40.53;22.70;;;10.90;99.90;;;;;;5036467;28;20036;-67
2022/02/04 19:40:14;;;;;;;41.58;26.27;;;10.80;99.90;;;;;;5037188;28;20056;-67
2022/02/04 19:43:22;;;;;;;58.38;33.10;;;10.80;99.90;;;;;;5036736;28;20518;-67
2022/02/04 19:46:31;;;;;;;49.95;28.35;;;10.80;99.90;;;;;;5036505;28;20044;-68
2022/02/04 19:53:41;;;;;;;80.88;35.25;;;10.70;99.90;;;;;;5050235;28;20140;-70
2022/02/04 20:07:27;;;;;;;48.83;31.73;;;10.40;99.90;;;;;;5032623;28;20386;-70
2022/02/04 20:23:30;;;;;;;55.95;28.08;;;10.20;99.90;;;;;;5032343;28;20036;-70
2022/02/04 20:24:08;;;;;;;48.50;23.13;;;10.00;99.90;;;;;;5033629;28;20040;-69
2022/02/04 20:27:13;;;;;;;47.20;25.38;;;10.00;99.90;;;;;;5035396;28;20503;-70
2022/02/04 20:30:17;;;;;;;58.40;31.30;;;10.00;99.90;;;;;;5032475;28;20045;-70
2022/02/04 20:33:22;;;;;;;116.57;60.22;;;10.00;99.90;;;;;;5034212;28;20041;-70
2022/02/04 20:36:26;;;;;;;55.13;27.38;;;10.00;99.90;;;;;;5032369;28;20388;-69
2022/02/04 20:39:43;;;;;;;36.60;17.65;;;10.00;99.90;;;;;;5031884;28;20040;-71
2022/02/04 20:42:47;;;;;;;40.50;20.63;;;9.90;99.90;;;;;;5034705;28;20053;-70
2022/02/04 20:45:52;;;;;;;25.20;13.25;;;9.90;99.90;;;;;;5032065;28;20396;-70
2022/02/04 20:49:04;;;;;;;51.15;28.50;;;9.90;99.90;;;;;;5031460;28;20052;-70
2022/02/04 20:52:09;;;;;;;36.42;22.35;;;10.00;99.90;;;;;;5033078;28;20045;-70
2022/02/04 20:55:13;;;;;;;40.75;21.48;;;10.00;99.90;;;;;;5032231;28;20048;-70
2022/02/04 20:58:17;;;;;;;48.53;29.83;;;10.00;99.90;;;;;;5030306;28;20388;-69
2022/02/04 21:01:23;;;;;;;54.00;34.97;;;9.90;99.90;;;;;;5031677;28;20056;-68
2022/02/04 21:04:32;;;;;;;49.08;27.55;;;9.90;99.90;;;;;;5032334;28;20048;-70
2022/02/04 21:13:49;;;;;;;21.73;9.80;;;10.00;99.90;;;;;;5032520;28;20503;-69
2022/02/04 21:16:53;;;;;;;31.30;12.18;;;9.90;99.90;;;;;;5034877;28;20052;-69
2022/02/04 21:19:59;;;;;;;35.97;16.05;;;9.90;99.90;;;;;;5034814;28;20040;-70
2022/02/04 21:23:09;;;;;;;39.20;21.13;;;10.00;99.90;;;;;;5032144;28;20052;-70
2022/02/04 21:26:14;;;;;;;44.03;21.10;;;10.00;99.90;;;;;;5031897;28;20040;-70
2022/02/04 21:29:19;;;;;;;38.00;10.93;;;10.10;99.90;;;;;;5030338;28;20802;-70
2022/02/04 21:32:23;;;;;;;24.30;9.40;;;10.10;99.90;;;;;;5031077;28;20041;-70
2022/02/04 21:38:50;;;;;;;;;;;10.10;99.90;;;;;;5031835;28;20049;-70
2022/02/04 21:41:54;;;;;;;21.67;6.13;;;10.10;99.90;;;;;;5031563;28;19932;-69
2022/02/04 21:45:03;;;;;;;23.67;9.27;;;10.10;99.90;;;;;;5032348;28;20040;-70
2022/02/04 21:48:08;;;;;;;23.63;12.13;;;10.10;99.90;;;;;;5031898;28;20075;-70
2022/02/04 21:51:12;;;;;;;15.27;6.28;;;10.20;99.90;;;;;;5033685;28;20040;-70
2022/02/04 21:54:17;;;;;;;18.90;8.10;;;10.10;99.90;;;;;;5032777;28;20041;-70
2022/02/04 21:57:23;;;;;;;20.38;6.40;;;10.20;99.90;;;;;;5032813;28;20044;-70
2022/02/04 22:00:28;;;;;;;12.52;5.15;;;10.10;99.90;;;;;;5033735;28;20056;-69
2022/02/04 22:03:32;;;;;;;24.35;11.13;;;10.00;99.90;;;;;;5033525;28;20048;-68
2022/02/04 22:06:36;;;;;;;32.20;17.75;;;9.90;99.90;;;;;;5033761;28;20036;-70
2022/02/04 22:16:26;;;;;;;39.60;21.80;;;9.80;99.90;;;;;;5036889;28;20045;-70
2022/02/04 22:22:57;;;;;;;52.75;28.83;;;9.90;99.90;;;;;;5031969;28;20016;-70
2022/02/04 22:26:03;;;;;;;47.33;23.95;;;9.90;99.90;;;;;;5032209;28;20049;-70
2022/02/04 22:29:09;;;;;;;35.97;17.35;;;9.80;99.90;;;;;;5031208;28;20060;-70
2022/02/04 22:33:03;;;;;;;45.13;18.33;;;9.80;99.90;;;;;;5030498;28;20498;-70
2022/02/04 22:36:05;;;;;;;29.23;16.65;;;9.80;99.90;;;;;;5033884;28;20041;-69
2022/02/04 22:39:23;;;;;;;23.65;12.77;;;9.80;99.90;;;;;;5029793;28;20064;-70
2022/02/04 22:46:08;;;;;;;21.65;10.60;;;9.80;99.90;;;;;;5031280;28;20048;-69
2022/02/04 22:52:30;;;;;;;39.42;16.48;;;9.80;99.90;;;;;;5032173;28;20040;-70
2022/02/04 22:58:57;;;;;;;26.00;11.57;;;9.90;99.90;;;;;;5032175;28;20052;-70
2022/02/04 23:02:06;;;;;;;31.77;15.00;;;9.90;99.90;;;;;;5034956;28;20045;-70
2022/02/04 23:05:10;;;;;;;44.42;20.55;;;10.00;99.90;;;;;;5035896;28;20048;-69
2022/02/04 23:08:20;;;;;;;46.38;22.75;;;10.00;99.90;;;;;;5033589;28;20048;-70
2022/02/04 23:11:27;;;;;;;71.35;42.58;;;10.00;99.90;;;;;;5034442;28;20040;-70
2022/02/04 23:14:44;;;;;;;32.40;17.45;;;10.00;99.90;;;;;;5033776;28;20044;-70
2022/02/04 23:18:02;;;;;;;29.17;15.40;;;10.00;99.90;;;;;;5034291;28;20096;-70
2022/02/04 23:21:09;;;;;;;30.85;14.32;;;9.90;99.90;;;;;;5033503;28;20064;-70
2022/02/04 23:24:17;;;;;;;30.08;13.98;;;9.70;99.90;;;;;;5034018;28;20052;-70
2022/02/04 23:27:25;;;;;;;27.08;17.05;;;9.70;99.90;;;;;;5033357;28;20515;-69
2022/02/04 23:47:15;;;;;;;73.53;31.38;;;9.50;99.90;;;;;;5033298;28;19924;-69
2022/02/04 23:50:20;;;;;;;38.70;21.20;;;9.50;99.90;;;;;;5033402;28;20045;-69
2022/02/04 23:53:24;;;;;;;32.60;17.77;;;9.50;99.90;;;;;;5033281;28;20045;-69
2022/02/04 23:56:29;;;;;;;26.58;12.70;;;9.50;99.90;;;;;;5033126;28;20057;-69
